Terminal Aerodrome Forecast
Issued by NWS Duluth, MN

Home | Current Version | Previous Version | Text Only | Print | Product List | Glossary On
Versions: 1 2 3 4 5 6 7 8 9 10 11 12 13 14 15 16
000
FTUS43 KDLH 241400 AAA
TAFDLH
TAF AMD
KDLH 241410Z 2414/2512 31017G30KT 6SM BLSN SCT018
      TEMPO 2415/2416 4SM BLSN BKN018
     FM241600 32015G25KT P6SM VCSH SCT020 BKN040
     FM250000 32012KT P6SM SCT040
     FM250600 32007KT P6SM BKN120=

USA.gov is the U.S. government's official web portal to all federal, state and local government web resources and services.